Time;durP1;ratioP1;P1;durP2;ratioP2;P2;SDS_P1;SDS_P2;PMS_P1;PMS_P2;Temp;Humidity;BMP_temperature;BMP_pressure;BME280_temperature;BME280_humidity;BME280_pressure;Samples;Min_cycle;Max_cycle;Signal;HPM_P1;HPM_P2
2022/04/06 00:01:03;;;;;;;10.63;4.03;;;;;;;17.16;43.15;97468.72;4440000;32;20093;-77
2022/04/06 00:03:30;;;;;;;9.40;3.53;;;;;;;16.71;44.27;97468.75;4439553;32;20156;-77
2022/04/06 00:05:57;;;;;;;6.57;2.40;;;;;;;15.49;47.87;97464.75;4439557;32;20120;-77
2022/04/06 00:08:24;;;;;;;5.60;2.33;;;;;;;14.60;50.00;97470.97;4439893;32;20099;-77
2022/04/06 00:10:52;;;;;;;7.70;2.60;;;;;;;14.77;49.84;97475.00;4439443;32;20106;-77
2022/04/06 00:13:19;;;;;;;5.90;2.10;;;;;;;15.15;48.53;97469.75;4439604;32;20161;-77
2022/04/06 00:15:46;;;;;;;8.52;3.40;;;;;;;13.87;51.79;97479.25;4439390;32;20121;-77
2022/04/06 00:18:13;;;;;;;7.18;2.70;;;;;;;15.55;46.70;97469.50;4439421;32;20085;-77
2022/04/06 00:20:40;;;;;;;4.80;2.00;;;;;;;15.63;46.38;97472.44;4439621;32;20106;-77
2022/04/06 00:23:08;;;;;;;5.35;1.80;;;;;;;15.77;46.35;97474.03;4439620;32;20093;-77
2022/04/06 00:25:35;;;;;;;4.22;1.65;;;;;;;16.83;44.02;97480.81;4439012;32;20165;-77
2022/04/06 00:28:02;;;;;;;2.42;1.48;;;;;;;17.09;43.39;97480.56;4440873;32;20086;-77
2022/04/06 00:30:29;;;;;;;5.37;1.75;;;;;;;16.42;45.33;97476.13;4441715;32;20107;-76
2022/04/06 00:32:56;;;;;;;4.85;2.55;;;;;;;15.64;47.14;97466.28;4441332;32;20085;-77
2022/04/06 00:35:30;;;;;;;4.18;1.80;;;;;;;15.41;48.08;97465.28;4441276;32;20101;-77
2022/04/06 00:37:59;;;;;;;5.50;1.98;;;;;;;15.57;47.78;97467.62;4441528;32;20077;-77
2022/04/06 00:40:27;;;;;;;3.47;1.65;;;;;;;15.90;47.08;97470.41;4427418;32;20140;-77
2022/04/06 00:42:54;;;;;;;3.53;1.52;;;;;;;16.68;45.10;97484.56;4441659;32;20144;-77
2022/04/06 00:45:22;;;;;;;4.70;1.90;;;;;;;16.73;44.99;97479.88;4441392;32;20145;-77
2022/04/06 00:47:51;;;;;;;5.53;2.00;;;;;;;16.98;44.45;97484.84;4441155;32;20108;-77
2022/04/06 00:50:20;;;;;;;7.62;2.10;;;;;;;16.51;45.55;97480.63;4441557;32;20333;-77
2022/04/06 00:52:48;;;;;;;3.80;1.67;;;;;;;16.80;44.66;97478.47;4441182;32;20561;-77
2022/04/06 00:55:16;;;;;;;3.62;1.80;;;;;;;15.88;46.75;97472.31;4441291;32;20109;-77
2022/04/06 00:57:43;;;;;;;4.32;1.90;;;;;;;15.92;46.84;97465.09;4427651;32;20471;-77
2022/04/06 01:00:10;;;;;;;4.60;1.85;;;;;;;14.87;50.02;97457.00;4441108;32;20156;-77
2022/04/06 01:02:37;;;;;;;4.40;1.80;;;;;;;15.70;47.85;97457.19;4427524;32;20102;-76
2022/04/06 01:05:05;;;;;;;4.15;1.73;;;;;;;16.11;46.60;97456.75;4441352;32;20219;-77
2022/04/06 01:07:32;;;;;;;4.22;1.70;;;;;;;15.29;48.92;97453.16;4440968;32;20103;-77
2022/04/06 01:09:59;;;;;;;4.95;2.00;;;;;;;15.29;48.79;97456.59;4441295;32;20124;-77
2022/04/06 01:12:27;;;;;;;4.55;1.90;;;;;;;14.85;50.23;97453.69;4441365;32;20153;-77
2022/04/06 01:14:54;;;;;;;7.60;2.85;;;;;;;15.31;48.86;97448.69;4427080;32;20168;-77
2022/04/06 01:17:21;;;;;;;7.97;3.40;;;;;;;15.67;47.51;97455.66;4427564;32;20144;-77
2022/04/06 01:19:50;;;;;;;8.38;3.08;;;;;;;16.28;45.69;97455.50;4441336;32;20145;-77
2022/04/06 01:22:19;;;;;;;9.75;3.00;;;;;;;15.19;48.26;97452.16;4441063;32;20393;-77
2022/04/06 01:24:48;;;;;;;9.35;3.72;;;;;;;15.37;47.79;97452.63;4441152;32;20164;-77
2022/04/06 01:27:15;;;;;;;7.57;3.37;;;;;;;15.49;47.24;97443.94;4441198;32;20094;-77
2022/04/06 01:29:42;;;;;;;9.40;3.72;;;;;;;13.79;52.15;97442.59;4440912;32;20165;-77
2022/04/06 01:32:18;;;;;;;9.93;3.62;;;;;;;14.39;50.44;97441.25;4427361;32;20114;-77
2022/04/06 01:34:46;;;;;;;9.52;4.15;;;;;;;13.90;52.04;97450.50;4440478;32;20169;-77
2022/04/06 01:37:14;;;;;;;11.12;4.12;;;;;;;15.01;48.72;97443.91;4441188;32;20094;-76
2022/04/06 01:39:43;;;;;;;9.32;4.00;;;;;;;15.38;47.34;97451.69;4440572;32;20106;-77
2022/04/06 01:42:12;;;;;;;11.73;4.93;;;;;;;15.69;46.13;97452.94;4440872;32;20085;-77
2022/04/06 01:44:39;;;;;;;11.02;4.87;;;;;;;15.33;46.98;97447.66;4440951;32;20507;-77
2022/04/06 01:47:07;;;;;;;12.32;4.55;;;;;;;15.34;46.98;97448.47;4441046;32;20090;-77
2022/04/06 01:52:21;;;;;;;6.73;2.77;;;;;;;15.74;46.22;97459.47;4441112;32;20126;-77
2022/04/06 01:54:51;;;;;;;7.07;2.70;;;;;;;15.44;46.69;97459.88;4440954;32;20411;-77
2022/04/06 01:57:18;;;;;;;6.55;2.40;;;;;;;15.70;46.74;97454.59;4440783;32;20428;-77
2022/04/06 01:59:45;;;;;;;7.30;3.17;;;;;;;15.18;48.07;97455.69;4441031;32;20112;-77
2022/04/06 02:02:14;;;;;;;7.70;3.20;;;;;;;14.99;48.62;97445.75;4441076;32;20094;-77
2022/04/06 02:04:41;;;;;;;8.63;2.97;;;;;;;15.30;47.86;97444.44;4440508;32;20093;-77
2022/04/06 02:07:10;;;;;;;6.40;2.78;;;;;;;14.96;48.82;97451.19;4440910;32;20107;-77
2022/04/06 02:09:38;;;;;;;7.05;2.60;;;;;;;15.10;49.01;97445.88;4441026;32;20113;-77
2022/04/06 02:12:07;;;;;;;6.53;3.00;;;;;;;15.23;48.71;97451.84;4440935;32;20158;-77
2022/04/06 02:14:34;;;;;;;6.75;2.78;;;;;;;15.46;48.25;97454.56;4427011;32;20093;-77
2022/04/06 02:17:03;;;;;;;6.45;2.80;;;;;;;13.81;53.31;97455.47;4440624;32;20126;-77
2022/04/06 02:19:31;;;;;;;8.18;2.90;;;;;;;14.91;50.00;97459.31;4440918;32;20108;-77
2022/04/06 02:21:58;;;;;;;6.75;2.50;;;;;;;15.85;47.03;97471.69;4441015;32;20418;-77
2022/04/06 02:24:25;;;;;;;8.05;3.50;;;;;;;15.87;46.49;97465.44;4440516;32;20156;-77
2022/04/06 02:26:51;;;;;;;8.00;3.17;;;;;;;15.30;47.94;97470.41;4440725;32;20097;-77
2022/04/06 02:29:18;;;;;;;8.60;3.17;;;;;;;15.48;47.76;97468.28;4440852;32;20102;-77
2022/04/06 02:31:45;;;;;;;7.97;3.08;;;;;;;15.50;47.91;97462.03;4440486;32;20105;-77
2022/04/06 02:34:13;;;;;;;7.82;3.15;;;;;;;16.13;46.62;97473.09;4440624;32;20097;-77
2022/04/06 02:36:40;;;;;;;6.32;2.20;;;;;;;15.86;47.02;97466.38;4426964;32;20621;-77
2022/04/06 02:39:07;;;;;;;5.93;2.62;;;;;;;16.40;44.45;97465.00;4440524;32;20133;-77
2022/04/06 02:41:34;;;;;;;7.97;2.80;;;;;;;15.76;46.33;97468.00;4440693;32;20169;-77
2022/04/06 02:44:01;;;;;;;5.28;2.20;;;;;;;15.11;47.98;97464.88;4440676;32;20172;-77
2022/04/06 02:46:28;;;;;;;6.55;2.50;;;;;;;15.09;48.40;97466.72;4440229;32;20089;-77
2022/04/06 02:48:55;;;;;;;5.47;2.33;;;;;;;13.82;51.53;97465.75;4440748;32;20090;-77
2022/04/06 02:51:22;;;;;;;3.75;2.00;;;;;;;13.04;54.78;97469.84;4439485;32;20428;-77
2022/04/06 02:53:49;;;;;;;6.18;2.22;;;;;;;13.66;53.22;97466.84;4440427;32;20107;-77
2022/04/06 02:56:16;;;;;;;6.57;2.35;;;;;;;12.70;56.49;97474.47;4440547;32;20156;-77
2022/04/06 02:58:43;;;;;;;6.30;2.28;;;;;;;13.74;53.06;97474.97;4440666;32;20121;-77
2022/04/06 03:01:09;;;;;;;7.45;2.80;;;;;;;13.94;52.72;97477.09;4440385;32;20145;-77
2022/04/06 03:03:41;;;;;;;6.05;2.62;;;;;;;14.32;51.54;97474.53;4427322;32;20123;-77
2022/04/06 03:06:08;;;;;;;7.72;2.60;;;;;;;14.67;50.67;97468.75;4440077;32;20122;-77
2022/04/06 03:08:35;;;;;;;6.47;2.47;;;;;;;14.81;50.34;97466.06;4440600;32;20203;-77
2022/04/06 03:11:02;;;;;;;8.93;2.65;;;;;;;15.31;48.62;97457.34;4440518;32;20161;-77
2022/04/06 03:13:29;;;;;;;5.68;2.50;;;;;;;15.87;46.44;97468.03;4440232;32;20085;-77
2022/04/06 03:15:56;;;;;;;6.75;2.40;;;;;;;15.20;47.66;97466.81;4440302;32;20089;-77
2022/04/06 03:18:23;;;;;;;6.20;2.37;;;;;;;15.07;48.52;97474.62;4440592;32;20117;-76
2022/04/06 03:20:50;;;;;;;12.10;2.80;;;;;;;14.88;49.09;97479.44;4440107;32;20168;-77
2022/04/06 03:23:17;;;;;;;5.12;2.33;;;;;;;14.35;50.77;97474.34;4440443;32;20153;-77
2022/04/06 03:25:44;;;;;;;6.62;2.83;;;;;;;14.03;51.60;97466.09;4440116;32;20103;-77
2022/04/06 03:28:11;;;;;;;6.00;2.50;;;;;;;14.09;51.65;97473.47;4439970;32;20168;-77
2022/04/06 03:30:38;;;;;;;7.07;2.72;;;;;;;14.02;52.00;97464.44;4440264;32;20153;-77
2022/04/06 03:33:06;;;;;;;6.65;2.60;;;;;;;13.99;51.99;97451.66;4440334;32;20113;-77
2022/04/06 03:35:33;;;;;;;5.87;2.78;;;;;;;13.87;52.65;97448.13;4410680;32;20440;-77
2022/04/06 03:38:00;;;;;;;8.23;3.08;;;;;;;14.11;52.08;97453.44;4424773;32;20082;-77
2022/04/06 03:40:28;;;;;;;11.23;3.12;;;;;;;13.75;53.73;97450.69;4424847;32;20153;-77
2022/04/06 03:42:56;;;;;;;7.18;2.65;;;;;;;15.00;49.54;97444.84;4424467;32;20089;-77
2022/04/06 03:45:23;;;;;;;8.93;2.90;;;;;;;15.23;48.23;97445.81;4424605;32;20151;-77
2022/04/06 03:47:50;;;;;;;6.85;2.72;;;;;;;15.03;48.93;97444.62;4424548;32;20089;-77
2022/04/06 03:50:17;;;;;;;6.95;2.80;;;;;;;14.70;49.69;97434.81;4424457;32;20098;-77
2022/04/06 03:52:44;;;;;;;7.07;2.60;;;;;;;14.89;49.31;97437.81;4424620;32;20111;-77
2022/04/06 03:55:11;;;;;;;7.53;3.30;;;;;;;14.95;49.04;97436.53;4424083;32;20454;-77
2022/04/06 03:57:38;;;;;;;8.05;3.28;;;;;;;14.82;49.29;97433.13;4424838;32;20150;-77
2022/04/06 04:00:08;;;;;;;9.30;3.30;;;;;;;14.75;49.63;97436.16;4410882;32;20449;-77
2022/04/06 04:02:35;;;;;;;7.90;3.22;;;;;;;15.57;47.33;97439.84;4425044;32;20200;-77
2022/04/06 04:05:03;;;;;;;5.80;2.42;;;;;;;16.30;44.85;97438.00;4426307;32;20157;-77
2022/04/06 04:07:31;;;;;;;8.40;2.42;;;;;;;15.01;47.89;97436.12;4412548;32;20705;-77
2022/04/06 04:09:58;;;;;;;9.60;3.08;;;;;;;14.86;48.20;97448.37;4426082;32;20155;-77
2022/04/06 04:12:25;;;;;;;6.60;2.72;;;;;;;14.21;50.80;97447.66;4426500;32;20110;-77
2022/04/06 04:14:52;;;;;;;8.82;3.12;;;;;;;14.51;49.46;97448.22;4426271;32;20168;-77
2022/04/06 04:17:19;;;;;;;7.72;2.78;;;;;;;14.48;50.12;97442.41;4425944;32;20089;-77
2022/04/06 04:19:46;;;;;;;7.53;2.90;;;;;;;15.33;47.89;97434.66;4412528;32;20161;-77
2022/04/06 04:22:13;;;;;;;6.30;2.70;;;;;;;14.44;50.09;97452.12;4426376;32;20108;-77
2022/04/06 04:24:40;;;;;;;7.72;2.70;;;;;;;14.60;50.46;97441.56;4425935;32;20108;-77
2022/04/06 04:27:07;;;;;;;8.18;3.28;;;;;;;15.15;49.13;97442.94;4426152;32;20082;-77
2022/04/06 04:29:34;;;;;;;7.93;2.58;;;;;;;15.32;47.91;97443.41;4426312;32;20515;-77
2022/04/06 04:32:01;;;;;;;6.82;2.47;;;;;;;15.17;48.12;97435.84;4425984;32;20391;-77
2022/04/06 04:34:28;;;;;;;6.10;2.80;;;;;;;14.76;49.73;97431.78;4416523;32;20074;-77
2022/04/06 04:36:55;;;;;;;6.75;2.75;;;;;;;14.53;50.51;97445.50;4426218;32;20157;-77
2022/04/06 04:39:22;;;;;;;7.60;3.03;;;;;;;15.99;46.43;97442.06;4425997;32;20093;-77
2022/04/06 04:41:49;;;;;;;8.63;3.12;;;;;;;15.94;46.94;97446.75;4426325;32;20429;-77
2022/04/06 04:44:16;;;;;;;7.65;2.80;;;;;;;15.43;48.66;97457.41;4425779;32;20098;-77
2022/04/06 04:46:43;;;;;;;6.55;2.65;;;;;;;15.49;47.42;97455.16;4425992;32;20105;-77
2022/04/06 04:49:10;;;;;;;6.15;2.60;;;;;;;15.33;48.15;97450.25;4426081;32;20094;-77
2022/04/06 04:51:37;;;;;;;8.18;3.20;;;;;;;15.94;47.16;97447.59;4425867;32;20089;-77
2022/04/06 04:54:04;;;;;;;8.85;3.47;;;;;;;15.86;47.40;97448.19;4426072;32;20095;-77
2022/04/06 04:56:33;;;;;;;8.13;3.10;;;;;;;15.52;48.17;97459.31;4426014;32;20155;-77
2022/04/06 04:59:00;;;;;;;8.90;3.17;;;;;;;15.31;48.85;97454.75;4425737;32;20098;-77
2022/04/06 05:01:27;;;;;;;11.65;4.15;;;;;;;14.67;50.88;97467.03;4426152;32;20077;-76
2022/04/06 05:03:54;;;;;;;9.90;3.50;;;;;;;13.79;54.60;97460.75;4426030;32;20160;-77
2022/04/06 05:06:21;;;;;;;8.75;3.00;;;;;;;13.37;55.69;97469.50;4425632;32;20097;-77
2022/04/06 05:08:48;;;;;;;6.93;2.90;;;;;;;13.97;53.89;97474.28;4425814;32;20090;-77
2022/04/06 05:11:15;;;;;;;8.88;3.00;;;;;;;13.50;55.09;97482.53;4426088;32;20098;-77
2022/04/06 05:13:42;;;;;;;9.60;3.40;;;;;;;12.05;60.36;97486.13;4424902;32;20090;-77
2022/04/06 05:16:09;;;;;;;7.45;3.08;;;;;;;13.17;57.24;97480.25;4425958;32;20074;-77
2022/04/06 05:18:36;;;;;;;8.60;3.20;;;;;;;13.58;55.61;97483.69;4425990;32;20157;-77
2022/04/06 05:21:08;;;;;;;9.98;3.80;;;;;;;14.65;52.52;97487.03;4425714;32;20112;-77
2022/04/06 05:23:35;;;;;;;8.35;3.58;;;;;;;14.63;52.89;97475.09;4425901;32;20081;-77
2022/04/06 05:26:03;;;;;;;9.00;3.37;;;;;;;14.56;53.08;97479.03;4425700;32;20591;-77
2022/04/06 05:28:30;;;;;;;9.77;3.70;;;;;;;14.97;52.34;97469.25;4425661;32;20159;-77
2022/04/06 05:30:57;;;;;;;10.00;3.65;;;;;;;15.05;52.31;97471.31;4425920;32;20350;-77
2022/04/06 05:33:24;;;;;;;11.95;4.03;;;;;;;15.93;49.73;97484.13;4425580;32;20086;-77
2022/04/06 05:35:51;;;;;;;9.68;3.70;;;;;;;15.92;49.82;97478.09;4439770;32;20424;-77
2022/04/06 05:38:18;;;;;;;10.55;3.50;;;;;;;16.14;49.24;97483.38;4427204;32;20443;-76
2022/04/06 05:40:45;;;;;;;10.30;3.85;;;;;;;16.96;47.05;97486.72;4426968;32;20436;-76
2022/04/06 05:43:13;;;;;;;9.50;3.53;;;;;;;17.22;46.10;97497.72;4441056;32;20129;-76
2022/04/06 05:45:40;;;;;;;9.93;3.80;;;;;;;17.56;44.50;97498.53;4440864;32;20650;-76
2022/04/06 05:48:07;;;;;;;12.75;5.47;;;;;;;17.06;46.42;97499.88;4440583;32;20451;-76
2022/04/06 05:50:34;;;;;;;9.82;4.15;;;;;;;16.75;47.73;97504.84;4441062;32;20149;-76
2022/04/06 05:53:01;;;;;;;8.10;3.30;;;;;;;16.67;48.06;97493.31;4441073;32;20443;-76
2022/04/06 05:55:28;;;;;;;7.87;3.37;;;;;;;16.63;47.65;97500.53;4440548;32;20157;-76
2022/04/06 05:57:55;;;;;;;8.60;3.37;;;;;;;16.76;47.76;97498.69;4431179;32;20093;-75
2022/04/06 06:00:22;;;;;;;13.23;3.83;;;;;;;16.81;47.46;97500.13;4425035;32;20092;-81
2022/04/06 06:02:51;;;;;;;7.12;3.10;;;;;;;17.18;46.92;97503.31;4429740;32;20153;-85
2022/04/06 06:05:18;;;;;;;8.13;3.67;;;;;;;17.40;46.03;97494.63;4426047;32;20078;-82
2022/04/06 06:07:48;;;;;;;9.27;4.07;;;;;;;17.23;46.45;97499.41;4433901;32;20125;-83
2022/04/06 06:10:18;;;;;;;9.25;3.85;;;;;;;17.78;45.69;97494.22;4431695;32;20124;-84
2022/04/06 06:12:46;;;;;;;10.65;4.15;;;;;;;18.15;45.11;97487.66;4431837;32;20148;-85
2022/04/06 06:15:15;;;;;;;8.60;3.83;;;;;;;18.89;43.14;97494.59;4429704;32;20058;-86
2022/04/06 06:17:42;;;;;;;9.27;4.20;;;;;;;19.65;41.14;97501.06;4425894;32;20164;-87
2022/04/06 06:20:12;;;;;;;15.57;6.40;;;;;;;18.18;44.22;97494.41;4427090;32;20098;-83
2022/04/06 06:22:41;;;;;;;21.92;7.72;;;;;;;18.65;43.83;97502.72;4425837;32;20499;-82
2022/04/06 06:25:08;;;;;;;14.25;4.93;;;;;;;18.02;45.23;97491.41;4424527;32;20074;-81
2022/04/06 06:27:44;;;;;;;10.68;4.30;;;;;;;18.65;44.02;97497.50;4425493;32;20108;-82
2022/04/06 06:30:19;;;;;;;9.55;3.85;;;;;;;18.39;45.00;97491.78;4410817;32;20093;-83
2022/04/06 06:32:46;;;;;;;10.60;4.50;;;;;;;19.14;43.32;97499.38;4419749;32;187378;-81
2022/04/06 06:35:14;;;;;;;10.13;4.72;;;;;;;17.62;46.71;97491.97;4425950;32;20050;-81
2022/04/06 06:37:49;;;;;;;9.90;4.25;;;;;;;18.14;46.23;97503.44;4424315;32;20106;-83
2022/04/06 06:40:17;;;;;;;11.02;4.93;;;;;;;17.52;48.13;97502.31;4409803;32;20177;-83
2022/04/06 06:42:44;;;;;;;9.32;4.20;;;;;;;17.89;47.24;97508.06;4424601;32;20180;-78
2022/04/06 06:45:11;;;;;;;9.60;4.70;;;;;;;19.60;42.97;97503.25;4427585;32;20145;-76
2022/04/06 06:47:41;;;;;;;11.25;4.75;;;;;;;18.09;44.59;97510.84;4425537;32;20163;-83
2022/04/06 06:50:10;;;;;;;9.07;4.07;;;;;;;19.30;42.41;97504.94;4429627;32;20074;-84
2022/04/06 06:52:37;;;;;;;10.85;4.60;;;;;;;19.28;41.41;97499.00;4425684;32;20160;-82
2022/04/06 06:55:11;;;;;;;13.00;5.07;;;;;;;19.44;39.93;97502.91;4429174;32;20070;-83
2022/04/06 06:57:38;;;;;;;10.75;4.62;;;;;;;18.57;41.07;97502.50;4431067;32;20113;-84
2022/04/06 07:00:05;;;;;;;9.30;4.20;;;;;;;18.91;40.03;97503.13;4430767;32;20153;-83
2022/04/06 07:02:32;;;;;;;11.27;4.47;;;;;;;17.88;42.31;97500.34;4415072;32;20098;-84
2022/04/06 07:04:59;;;;;;;11.55;4.57;;;;;;;18.95;40.09;97496.69;4424474;32;20154;-84
2022/04/06 07:07:26;;;;;;;10.52;4.55;;;;;;;19.46;38.61;97493.97;4425193;32;20094;-83
2022/04/06 07:09:53;;;;;;;12.75;5.03;;;;;;;19.81;37.96;97501.34;4428056;32;20117;-84
2022/04/06 07:12:20;;;;;;;11.40;4.57;;;;;;;20.03;37.08;97500.28;4426776;32;20083;-84
2022/04/06 07:14:52;;;;;;;14.32;7.65;;;;;;;20.33;36.85;97498.47;4424536;32;20132;-83
2022/04/06 07:17:20;;;;;;;12.82;5.30;;;;;;;20.30;37.83;97499.56;4425029;32;20531;-83
2022/04/06 07:19:47;;;;;;;12.40;5.15;;;;;;;19.45;39.21;97491.47;4413205;32;20177;-83
2022/04/06 07:22:13;;;;;;;12.23;4.50;;;;;;;18.61;40.96;97507.34;4427431;32;20145;-83
2022/04/06 07:24:40;;;;;;;11.23;5.32;;;;;;;18.74;42.08;97505.41;4428115;32;20116;-83
2022/04/06 07:27:12;;;;;;;13.80;5.65;;;;;;;18.61;42.83;97509.97;4434122;32;20086;-84
2022/04/06 07:29:39;;;;;;;13.65;5.70;;;;;;;17.39;45.63;97503.41;4428232;32;20109;-85
2022/04/06 07:32:07;;;;;;;11.73;5.53;;;;;;;18.75;42.56;97514.06;4428701;32;20153;-85
2022/04/06 07:34:34;;;;;;;11.88;5.43;;;;;;;19.45;41.58;97515.03;4428400;32;20097;-85
2022/04/06 07:37:03;;;;;;;11.35;4.95;;;;;;;19.97;39.87;97513.91;4429196;32;20108;-85
2022/04/06 07:39:30;;;;;;;11.70;5.43;;;;;;;18.66;42.94;97518.28;4433021;32;20153;-86
2022/04/06 07:41:57;;;;;;;10.80;5.25;;;;;;;17.19;46.26;97525.81;4430950;32;20081;-85
2022/04/06 07:44:24;;;;;;;10.90;5.25;;;;;;;18.66;42.68;97526.09;4426908;32;20104;-84
2022/04/06 07:46:51;;;;;;;10.75;4.90;;;;;;;18.16;43.68;97520.62;4426416;32;20104;-84
2022/04/06 07:49:19;;;;;;;12.20;5.20;;;;;;;18.56;42.31;97524.34;4449312;27;20069;-85
2022/04/06 07:51:47;;;;;;;11.82;5.28;;;;;;;19.26;40.67;97534.94;4444920;32;20144;-88
2022/04/06 07:54:15;;;;;;;10.93;5.32;;;;;;;19.19;41.07;97532.97;4447613;32;20101;-84
2022/04/06 07:56:42;;;;;;;11.32;5.15;;;;;;;19.28;40.68;97533.03;4427957;32;20178;-79
2022/04/06 07:59:09;;;;;;;12.77;4.87;;;;;;;18.03;43.97;97529.59;4442659;32;20153;-77
2022/04/06 08:01:36;;;;;;;12.15;5.68;;;;;;;18.46;43.55;97534.75;4439812;32;20165;-76
2022/04/06 08:04:03;;;;;;;10.30;4.87;;;;;;;18.39;43.78;97531.78;4439558;32;20108;-75
2022/04/06 08:06:30;;;;;;;15.15;5.10;;;;;;;18.36;45.02;97528.62;4439366;32;20365;-76
2022/04/06 08:08:59;;;;;;;12.35;5.78;;;;;;;18.27;44.73;97529.38;4425151;32;20200;-75
2022/04/06 08:11:26;;;;;;;12.73;5.20;;;;;;;17.98;45.64;97524.75;4439442;32;20164;-77
2022/04/06 08:13:53;;;;;;;10.20;4.93;;;;;;;20.22;40.51;97526.47;4439551;32;20094;-77
2022/04/06 08:16:23;;;;;;;14.48;5.60;;;;;;;20.40;39.21;97525.75;4439733;32;20154;-79
2022/04/06 08:18:50;;;;;;;11.18;5.50;;;;;;;20.84;37.91;97526.97;4439532;32;20112;-78
2022/04/06 08:21:18;;;;;;;11.12;5.35;;;;;;;21.24;37.30;97528.47;4439473;32;20144;-78
2022/04/06 08:23:45;;;;;;;11.10;5.20;;;;;;;21.36;37.06;97527.31;4438932;32;20086;-78
2022/04/06 08:26:12;;;;;;;11.43;5.32;;;;;;;21.52;36.52;97527.53;4439241;32;20101;-77
2022/04/06 08:28:40;;;;;;;12.15;5.40;;;;;;;19.76;41.12;97528.88;4438905;32;20105;-79
2022/04/06 08:31:07;;;;;;;11.20;5.28;;;;;;;21.33;37.40;97536.31;4439908;32;20465;-78
2022/04/06 08:33:34;;;;;;;17.70;6.20;;;;;;;21.41;37.11;97522.47;4435827;32;20180;-78
2022/04/06 08:36:04;;;;;;;15.20;5.70;;;;;;;20.17;39.72;97519.97;4436774;32;20098;-78
2022/04/06 08:38:31;;;;;;;12.55;5.72;;;;;;;21.04;39.02;97528.53;4437903;32;20151;-77
2022/04/06 08:40:58;;;;;;;12.80;6.30;;;;;;;20.86;38.59;97521.56;4438516;32;20452;-77
2022/04/06 08:43:26;;;;;;;11.48;5.40;;;;;;;23.16;33.86;97527.97;4438360;32;20444;-77
2022/04/06 08:45:54;;;;;;;17.37;6.12;;;;;;;22.58;34.39;97531.19;4437516;32;20120;-79
2022/04/06 08:48:28;;;;;;;12.88;6.65;;;;;;;22.97;33.50;97529.03;4439073;32;20162;-79
2022/04/06 08:50:57;;;;;;;11.70;5.50;;;;;;;22.65;33.92;97520.88;4440207;32;20423;-79
2022/04/06 08:53:24;;;;;;;12.88;6.50;;;;;;;23.94;32.43;97515.44;4426767;32;20116;-79
2022/04/06 08:55:52;;;;;;;12.63;5.93;;;;;;;25.12;30.64;97515.09;4439864;32;20149;-79
2022/04/06 08:58:19;;;;;;;11.02;5.90;;;;;;;23.00;33.95;97515.56;4439972;32;20093;-79
2022/04/06 09:00:46;;;;;;;11.43;6.35;;;;;;;23.71;32.93;97509.09;4440444;32;20111;-79
2022/04/06 09:03:13;;;;;;;13.35;6.28;;;;;;;23.34;32.90;97517.34;4440770;32;20093;-80
2022/04/06 09:05:40;;;;;;;13.70;6.53;;;;;;;22.93;33.79;97509.25;4425579;32;20108;-79
2022/04/06 09:08:07;;;;;;;13.10;6.57;;;;;;;22.95;33.96;97512.56;4440767;32;20105;-80
2022/04/06 09:10:40;;;;;;;11.90;6.40;;;;;;;23.18;32.99;97512.00;4440348;32;20407;-78
2022/04/06 09:13:09;;;;;;;13.98;7.85;;;;;;;25.09;29.48;97514.44;4440321;32;20531;-79
2022/04/06 09:15:38;;;;;;;12.57;6.72;;;;;;;25.06;29.24;97511.28;4439835;32;20094;-79
2022/04/06 09:18:05;;;;;;;13.88;6.90;;;;;;;24.68;30.17;97504.94;4440243;32;20116;-79
2022/04/06 09:20:32;;;;;;;13.95;7.03;;;;;;;25.30;29.51;97513.00;4440939;32;20109;-78
2022/04/06 09:23:01;;;;;;;13.05;6.53;;;;;;;25.75;29.00;97507.06;4443108;32;20098;-77
2022/04/06 09:25:39;;;;;;;18.40;7.12;;;;;;;22.04;36.59;97495.41;4428605;32;20102;-79
2022/04/06 09:28:11;;;;;;;13.95;7.12;;;;;;;24.55;33.01;97499.31;4443937;32;20108;-78
2022/04/06 09:30:39;;;;;;;12.00;7.12;;;;;;;22.92;35.68;97501.53;4443743;32;20466;-79
2022/04/06 09:33:21;;;;;;;14.68;6.72;;;;;;;24.19;32.58;97491.72;4443485;32;20089;-78
2022/04/06 09:35:49;;;;;;;13.80;7.18;;;;;;;24.22;32.76;97486.13;4443140;32;20128;-77
2022/04/06 09:38:20;;;;;;;8.23;3.80;;;;;;;25.28;30.75;97486.78;4444643;32;20097;-79
2022/04/06 09:40:51;;;;;;;11.30;4.37;;;;;;;26.09;24.07;97480.25;4429423;32;20097;-78
2022/04/06 09:43:27;;;;;;;10.23;4.50;;;;;;;26.30;24.10;97486.69;4429788;32;20454;-78
2022/04/06 09:48:55;;;;;;;11.07;4.97;;;;;;;26.74;25.75;97478.87;4444480;32;20160;-82
2022/04/06 09:51:22;;;;;;;9.15;4.60;;;;;;;26.57;25.46;97480.03;4445895;32;20127;-80
2022/04/06 09:53:56;;;;;;;9.60;4.55;;;;;;;26.32;25.61;97476.75;4445799;32;20100;-78
2022/04/06 09:56:23;;;;;;;9.13;3.95;;;;;;;25.62;24.69;97464.50;4448256;32;20065;-79
2022/04/06 09:58:50;;;;;;;10.07;4.22;;;;;;;25.35;24.89;97461.34;4448235;32;20105;-81
2022/04/06 10:01:18;;;;;;;10.05;4.03;;;;;;;24.87;25.54;97458.84;4445969;32;20061;-81
2022/04/06 10:03:50;;;;;;;9.10;3.80;;;;;;;24.84;25.39;97449.47;4451624;32;20058;-81
2022/04/06 10:06:17;;;;;;;8.38;3.67;;;;;;;24.92;25.09;97459.19;4434616;32;20114;-78
2022/04/06 10:08:44;;;;;;;9.80;4.37;;;;;;;25.05;25.20;97459.50;4421081;32;20097;-81
2022/04/06 10:11:12;;;;;;;10.85;4.30;;;;;;;25.75;24.53;97448.94;4449160;32;20089;-78
2022/04/06 10:13:40;;;;;;;9.80;4.43;;;;;;;25.25;25.54;97452.81;4426451;32;20179;-78
2022/04/06 10:16:20;;;;;;;9.73;4.65;;;;;;;24.96;25.61;97449.94;4439991;32;20467;-77
2022/04/06 10:18:48;;;;;;;9.02;3.80;;;;;;;25.03;25.80;97450.94;4426269;32;20202;-77
2022/04/06 10:21:22;;;;;;;8.63;4.10;;;;;;;25.49;23.95;97446.59;4425830;32;20187;-79
2022/04/06 10:24:26;;;;;;;10.32;4.30;;;;;;;25.43;24.64;97438.53;4426489;32;20414;-78
2022/04/06 10:27:16;;;;;;;10.32;4.55;;;;;;;26.07;24.79;97442.59;4430417;32;20165;-79
2022/04/06 10:30:10;;;;;;;8.00;3.60;;;;;;;24.73;25.52;97441.91;4439524;32;20117;-79
2022/04/06 10:32:42;;;;;;;9.32;4.30;;;;;;;24.19;25.04;97437.19;4439873;32;20086;-78
2022/04/06 10:35:25;;;;;;;8.48;3.85;;;;;;;23.83;26.14;97428.00;4438683;32;20149;-78
2022/04/06 10:38:13;;;;;;;10.13;4.03;;;;;;;24.06;25.27;97430.78;4440263;32;20128;-78
2022/04/06 10:40:46;;;;;;;8.93;3.92;;;;;;;24.22;25.58;97433.41;4426284;32;20093;-78
2022/04/06 10:43:39;;;;;;;10.32;3.83;;;;;;;24.33;24.70;97424.34;4439708;32;20101;-78
2022/04/06 10:46:14;;;;;;;10.20;4.07;;;;;;;24.96;24.13;97427.00;4439507;32;20481;-76
2022/04/06 10:49:06;;;;;;;8.38;3.50;;;;;;;23.87;25.79;97424.84;4439690;32;20117;-76
2022/04/06 10:51:37;;;;;;;11.52;3.83;;;;;;;23.33;26.34;97419.13;4439812;32;20500;-76
2022/04/06 10:54:13;;;;;;;10.48;4.82;;;;;;;22.69;26.85;97424.94;4426206;32;20404;-77
2022/04/06 10:56:46;;;;;;;10.85;4.80;;;;;;;22.88;27.32;97422.13;4439152;32;20176;-76
2022/04/06 10:59:20;;;;;;;12.77;5.22;;;;;;;22.40;28.16;97420.00;4439578;32;20169;-76
2022/04/06 11:02:14;;;;;;;10.70;4.75;;;;;;;23.87;26.43;97421.38;4439595;32;20505;-76
2022/04/06 11:04:41;;;;;;;11.10;4.57;;;;;;;24.65;25.89;97415.56;4438796;32;20444;-76
2022/04/06 11:07:09;;;;;;;12.60;5.50;;;;;;;24.76;25.50;97404.63;4441415;32;20577;-77
2022/04/06 11:12:30;;;;;;;11.48;4.47;;;;;;;24.87;24.74;97414.00;4441197;32;20099;-76
2022/04/06 11:15:00;;;;;;;7.93;3.10;;;;;;;24.34;25.03;97405.72;4441932;32;20077;-75
2022/04/06 11:17:42;;;;;;;8.98;3.75;;;;;;;23.32;26.15;97393.81;4442732;32;20208;-76
2022/04/06 11:20:19;;;;;;;10.45;4.18;;;;;;;25.09;23.62;97393.00;4442469;32;20102;-76
2022/04/06 11:22:53;;;;;;;8.95;3.45;;;;;;;24.78;24.13;97395.59;4441374;32;20112;-76
2022/04/06 11:25:24;;;;;;;9.80;4.00;;;;;;;25.06;23.57;97382.78;4440947;32;20151;-75
2022/04/06 11:27:58;;;;;;;11.10;4.75;;;;;;;24.27;25.43;97375.75;4442295;32;20149;-77
2022/04/06 11:30:32;;;;;;;12.32;4.57;;;;;;;24.64;25.68;97379.63;4428662;32;20461;-76
2022/04/06 11:33:02;;;;;;;13.95;4.65;;;;;;;24.28;26.69;97377.38;4441135;32;20101;-74
2022/04/06 11:35:34;;;;;;;10.20;4.70;;;;;;;23.94;27.03;97369.69;4439034;32;20128;-77
2022/04/06 11:38:06;;;;;;;10.20;4.20;;;;;;;24.10;25.39;97364.41;4438259;32;20498;-76
2022/04/06 11:40:34;;;;;;;10.38;4.78;;;;;;;24.62;25.16;97358.69;4439422;32;20139;-77
2022/04/06 11:43:05;;;;;;;10.32;4.72;;;;;;;24.55;25.77;97359.53;4439212;32;20146;-77
2022/04/06 11:45:39;;;;;;;10.88;4.93;;;;;;;24.00;27.13;97350.56;4438278;32;20111;-77